Wetterdaten: Woche 19.01.26 - 25.01.26 (KW4)
Datum Zeit Temp. Aussen Temp. o. S. Temp +5cm Feuchte Auss Luftdruck Regen Sonnenschein Regendauer Solar Windböen Empfang
19.01.2026 00:00 2,0 °C 1,1 °C -2,2 °C 92 % 1019,7 hPa 0,0 l/m² 0,00 h 0,00 h 0 W/m² 6,6 km/h (2 Bft) 97,19 %
19.01.2026 01:00 1,7 °C 0,9 °C -2,2 °C 93 % 1019,3 hPa 0,0 l/m² 0,00 h 0,00 h 0 W/m² 7,7 km/h (2 Bft) 97,07 %
19.01.2026 02:00 1,4 °C 0,6 °C -2,5 °C 94 % 1019,1 hPa 0,0 l/m² 0,00 h 0,00 h 0 W/m² 7,3 km/h (2 Bft) 95,01 %
19.01.2026 03:00 1,0 °C 0,0 °C -2,8 °C 94 % 1019,1 hPa 0,0 l/m² 0,00 h 0,00 h 0 W/m² 1,3 km/h (1 Bft) 98,97 %
19.01.2026 04:00 0,7 °C 0,0 °C -3,1 °C 94 % 1018,9 hPa 0,0 l/m² 0,00 h 0,00 h 0 W/m² 5,3 km/h (1 Bft) 94,37 %
19.01.2026 05:00 0,5 °C -0,5 °C -3,3 °C 94 % 1018,8 hPa 0,0 l/m² 0,00 h 0,00 h 0 W/m² 3,8 km/h (1 Bft) 97,74 %
19.01.2026 06:00 0,4 °C -0,0 °C -3,1 °C 95 % 1018,8 hPa 0,0 l/m² 0,00 h 0,00 h 0 W/m² 6,8 km/h (2 Bft) 95,99 %
19.01.2026 07:00 0,6 °C 0,0 °C -2,9 °C 95 % 1019,1 hPa 0,0 l/m² 0,00 h 0,00 h 0 W/m² 11,1 km/h (2 Bft) 96,76 %
19.01.2026 08:00 0,5 °C 0,0 °C -3,3 °C 94 % 1019,4 hPa 0,0 l/m² 0,30 h 0,00 h 22 W/m² 7,1 km/h (2 Bft) 97,38 %
19.01.2026 09:00 0,9 °C 0,9 °C -2,3 °C 95 % 1019,6 hPa 0,0 l/m² 0,20 h 0,00 h 44 W/m² 8,7 km/h (2 Bft) 97,56 %
19.01.2026 10:00 1,8 °C 2,2 °C -1,4 °C 95 % 1019,8 hPa 0,0 l/m² 0,20 h 0,00 h 104 W/m² 12,1 km/h (2 Bft) 98,36 %
19.01.2026 11:00 3,1 °C 5,4 °C -0,7 °C 93 % 1019,9 hPa 0,0 l/m² 0,63 h 0,00 h 184 W/m² 15,7 km/h (3 Bft) 97,56 %
19.01.2026 12:00 3,7 °C 5,5 °C -0,4 °C 89 % 1019,9 hPa 0,0 l/m² 0,33 h 0,00 h 161 W/m² 15,6 km/h (3 Bft) 96,31 %
19.01.2026 13:00 4,0 °C 5,3 °C 0,0 °C 88 % 1019,8 hPa 0,0 l/m² 0,30 h 0,00 h 164 W/m² 16,8 km/h (3 Bft) 98,06 %
19.01.2026 14:00 4,3 °C 5,9 °C -0,0 °C 87 % 1019,7 hPa 0,0 l/m² 0,73 h 0,00 h 177 W/m² 15,4 km/h (3 Bft) 97,88 %
19.01.2026 15:00 3,9 °C 3,7 °C -0,6 °C 87 % 1019,8 hPa 0,0 l/m² 0,17 h 0,00 h 73 W/m² 12,1 km/h (2 Bft) 96,63 %
19.01.2026 16:00 3,1 °C 2,3 °C -1,2 °C 89 % 1019,9 hPa 0,0 l/m² 0,00 h 0,00 h 16 W/m² 12,3 km/h (3 Bft) 97,01 %
19.01.2026 17:00 2,3 °C 1,3 °C -1,9 °C 91 % 1020,1 hPa 0,0 l/m² 0,00 h 0,00 h 0 W/m² 12,1 km/h (2 Bft) 97,44 %
19.01.2026 18:00 1,6 °C 0,7 °C -2,4 °C 92 % 1020,3 hPa 0,0 l/m² 0,00 h 0,00 h 0 W/m² 12,7 km/h (3 Bft) 95,82 %
19.01.2026 19:00 1,2 °C 0,6 °C -2,8 °C 93 % 1020,5 hPa 0,0 l/m² 0,00 h 0,00 h 0 W/m² 13,8 km/h (3 Bft) 94,21 %
19.01.2026 20:00 0,9 °C 0,4 °C -2,8 °C 94 % 1020,7 hPa 0,0 l/m² 0,00 h 0,00 h 0 W/m² 16,2 km/h (3 Bft) 98,06 %
19.01.2026 21:00 0,7 °C 0,0 °C -3,0 °C 94 % 1020,8 hPa 0,0 l/m² 0,00 h 0,00 h 0 W/m² 13,2 km/h (3 Bft) 96,07 %
19.01.2026 22:00 0,4 °C -0,5 °C -3,3 °C 95 % 1020,9 hPa 0,0 l/m² 0,00 h 0,00 h 0 W/m² 8,4 km/h (2 Bft) 95,25 %
19.01.2026 23:00 0,3 °C -0,2 °C -3,3 °C 95 % 1021,0 hPa 0,0 l/m² 0,00 h 0,00 h 0 W/m² 15,5 km/h (3 Bft) 96,56 %
20.01.2026 00:00 0,4 °C 0,0 °C -3,3 °C 96 % 1021,0 hPa 0,0 l/m² 0,00 h 0,00 h 0 W/m² 14,9 km/h (3 Bft) 97,15 %
20.01.2026 01:00 0,3 °C 0,0 °C -3,3 °C 96 % 1020,9 hPa 0,0 l/m² 0,00 h 0,00 h 0 W/m² 12,5 km/h (3 Bft) 94,52 %
20.01.2026 02:00 0,3 °C -0,1 °C -3,3 °C 97 % 1020,6 hPa 0,0 l/m² 0,00 h 0,00 h 0 W/m² 13,8 km/h (3 Bft) 97,37 %
20.01.2026 03:00 0,2 °C -0,6 °C -3,3 °C 97 % 1020,1 hPa 0,0 l/m² 0,00 h 0,00 h 0 W/m² 11,4 km/h (2 Bft) 98,38 %
20.01.2026 04:00 -0,1 °C -0,6 °C -3,3 °C 97 % 1019,6 hPa 0,0 l/m² 0,00 h 0,00 h 0 W/m² 12,6 km/h (3 Bft) 96,18 %
20.01.2026 05:00 -0,1 °C -0,6 °C -3,3 °C 97 % 1019,3 hPa 0,0 l/m² 0,00 h 0,00 h 0 W/m² 14,2 km/h (3 Bft) 95,75 %
20.01.2026 06:00 -0,2 °C -0,9 °C -3,6 °C 96 % 1019,1 hPa 0,0 l/m² 0,00 h 0,00 h 0 W/m² 9,1 km/h (2 Bft) 98,36 %
20.01.2026 07:00 -0,3 °C -1,0 °C -3,9 °C 95 % 1019,0 hPa 0,0 l/m² 0,00 h 0,00 h 0 W/m² 9,7 km/h (2 Bft) 95,88 %
20.01.2026 08:00 -0,3 °C -0,9 °C -3,9 °C 94 % 1019,0 hPa 0,0 l/m² 0,00 h 0,00 h 11 W/m² 9,8 km/h (2 Bft) 97,65 %
20.01.2026 09:00 0,2 °C 0,1 °C -3,0 °C 93 % 1018,8 hPa 0,0 l/m² 0,00 h 0,00 h 30 W/m² 12,8 km/h (3 Bft) 97,41 %
20.01.2026 10:00 1,3 °C 1,6 °C -2,1 °C 90 % 1018,7 hPa 0,0 l/m² 0,27 h 0,00 h 95 W/m² 15,3 km/h (3 Bft) 98,31 %
20.01.2026 11:00 3,0 °C 6,6 °C -1,2 °C 82 % 1018,3 hPa 0,0 l/m² 0,95 h 0,00 h 228 W/m² 15,9 km/h (3 Bft) 97,29 %
20.01.2026 12:00 3,8 °C 7,0 °C -0,6 °C 80 % 1017,6 hPa 0,0 l/m² 0,80 h 0,00 h 254 W/m² 18,4 km/h (3 Bft) 98,40 %
20.01.2026 13:00 5,1 °C 10,4 °C 0,2 °C 78 % 1017,2 hPa 0,0 l/m² 1,00 h 0,00 h 297 W/m² 16,3 km/h (3 Bft) 96,95 %
20.01.2026 14:00 5,7 °C 8,0 °C 0,0 °C 77 % 1016,9 hPa 0,0 l/m² 1,00 h 0,00 h 215 W/m² 15,3 km/h (3 Bft) 96,52 %
20.01.2026 15:00 5,5 °C 5,5 °C 0,2 °C 78 % 1016,5 hPa 0,0 l/m² 0,57 h 0,00 h 101 W/m² 16,2 km/h (3 Bft) 96,67 %
20.01.2026 16:00 4,7 °C 3,7 °C -0,3 °C 81 % 1016,3 hPa 0,0 l/m² 0,00 h 0,00 h 19 W/m² 12,3 km/h (3 Bft) 97,98 %
20.01.2026 17:00 3,7 °C 2,6 °C -1,2 °C 85 % 1016,1 hPa 0,0 l/m² 0,00 h 0,00 h 0 W/m² 7,5 km/h (2 Bft) 96,38 %
20.01.2026 18:00 3,0 °C 2,2 °C -1,6 °C 87 % 1015,3 hPa 0,0 l/m² 0,00 h 0,00 h 0 W/m² 12,2 km/h (2 Bft) 95,93 %
20.01.2026 19:00 2,7 °C 1,8 °C -1,7 °C 88 % 1015,1 hPa 0,0 l/m² 0,00 h 0,00 h 0 W/m² 15,1 km/h (3 Bft) 97,32 %
20.01.2026 20:00 2,2 °C 1,3 °C -2,2 °C 90 % 1014,6 hPa 0,0 l/m² 0,00 h 0,00 h 0 W/m² 17,9 km/h (3 Bft) 95,10 %
20.01.2026 21:00 1,7 °C 1,0 °C -2,4 °C 91 % 1014,0 hPa 0,0 l/m² 0,00 h 0,00 h 0 W/m² 14,7 km/h (3 Bft) 94,99 %
20.01.2026 22:00 1,4 °C 0,6 °C -2,8 °C 92 % 1013,3 hPa 0,0 l/m² 0,00 h 0,00 h 0 W/m² 14,7 km/h (3 Bft) 97,84 %
20.01.2026 23:00 1,3 °C 0,6 °C -2,8 °C 92 % 1012,7 hPa 0,0 l/m² 0,00 h 0,00 h 0 W/m² 16,2 km/h (3 Bft) 97,81 %
21.01.2026 00:00 1,2 °C 0,6 °C -2,8 °C 91 % 1012,1 hPa 0,0 l/m² 0,00 h 0,00 h 0 W/m² 15,3 km/h (3 Bft) 96,16 %
21.01.2026 01:00 1,2 °C 0,6 °C -2,8 °C 89 % 1011,4 hPa 0,0 l/m² 0,00 h 0,00 h 0 W/m² 18,0 km/h (3 Bft) 96,40 %
21.01.2026 02:00 1,5 °C 0,9 °C -2,8 °C 86 % 1010,4 hPa 0,0 l/m² 0,00 h 0,00 h 0 W/m² 19,5 km/h (3 Bft) 97,07 %
21.01.2026 03:00 1,4 °C 0,6 °C -2,8 °C 86 % 1009,7 hPa 0,0 l/m² 0,00 h 0,00 h 0 W/m² 14,7 km/h (3 Bft) 94,22 %
21.01.2026 04:00 1,5 °C 0,9 °C -2,8 °C 87 % 1009,0 hPa 0,0 l/m² 0,00 h 0,00 h 0 W/m² 15,2 km/h (3 Bft) 97,39 %
21.01.2026 05:00 1,5 °C 0,8 °C -2,6 °C 86 % 1008,5 hPa 0,0 l/m² 0,00 h 0,00 h 0 W/m² 16,3 km/h (3 Bft) 99,44 %
21.01.2026 06:00 1,9 °C 1,1 °C -2,2 °C 85 % 1007,8 hPa 0,0 l/m² 0,00 h 0,00 h 0 W/m² 19,6 km/h (3 Bft) 95,06 %
21.01.2026 07:00 1,9 °C 1,3 °C -2,2 °C 85 % 1007,2 hPa 0,0 l/m² 0,00 h 0,00 h 0 W/m² 18,3 km/h (3 Bft) 99,07 %
21.01.2026 08:00 2,3 °C 1,9 °C -1,9 °C 84 % 1006,8 hPa 0,0 l/m² 0,20 h 0,00 h 16 W/m² 18,0 km/h (3 Bft) 97,08 %
21.01.2026 09:00 2,8 °C 2,5 °C -1,4 °C 83 % 1006,4 hPa 0,0 l/m² 0,03 h 0,00 h 37 W/m² 20,1 km/h (4 Bft) 97,27 %
21.01.2026 10:00 3,2 °C 3,2 °C -0,9 °C 81 % 1005,9 hPa 0,0 l/m² 0,00 h 0,00 h 95 W/m² 20,9 km/h (4 Bft) 98,02 %
21.01.2026 11:00 4,2 °C 5,2 °C 0,2 °C 80 % 1005,4 hPa 0,0 l/m² 0,60 h 0,00 h 165 W/m² 17,8 km/h (3 Bft) 96,24 %
21.01.2026 12:00 5,2 °C 6,3 °C 0,9 °C 77 % 1004,7 hPa 0,0 l/m² 0,47 h 0,00 h 176 W/m² 18,6 km/h (3 Bft) 96,69 %
21.01.2026 13:00 6,0 °C 7,8 °C 1,5 °C 75 % 1003,8 hPa 0,0 l/m² 0,80 h 0,00 h 190 W/m² 15,7 km/h (3 Bft) 97,14 %
21.01.2026 14:00 7,1 °C 8,7 °C 2,2 °C 73 % 1003,0 hPa 0,0 l/m² 1,00 h 0,00 h 201 W/m² 16,7 km/h (3 Bft) 95,25 %
21.01.2026 15:00 7,5 °C 7,4 °C 2,2 °C 72 % 1002,3 hPa 0,0 l/m² 0,27 h 0,00 h 88 W/m² 16,0 km/h (3 Bft) 97,69 %
21.01.2026 16:00 6,8 °C 6,0 °C 1,7 °C 74 % 1001,8 hPa 0,0 l/m² 0,00 h 0,00 h 26 W/m² 13,4 km/h (3 Bft) 98,65 %
21.01.2026 17:00 5,9 °C 4,6 °C 0,6 °C 76 % 1001,5 hPa 0,0 l/m² 0,00 h 0,00 h 3 W/m² 7,2 km/h (2 Bft) 95,89 %
21.01.2026 18:00 5,0 °C 4,0 °C 0,0 °C 78 % 1001,0 hPa 0,0 l/m² 0,00 h 0,00 h 0 W/m² 14,9 km/h (3 Bft) 97,60 %
21.01.2026 19:00 4,6 °C 3,9 °C 0,0 °C 79 % 1000,6 hPa 0,0 l/m² 0,00 h 0,00 h 0 W/m² 13,8 km/h (3 Bft) 97,89 %
21.01.2026 20:00 4,2 °C 3,2 °C -0,7 °C 80 % 1000,1 hPa 0,0 l/m² 0,00 h 0,00 h 0 W/m² 11,2 km/h (2 Bft) 94,88 %
21.01.2026 21:00 3,6 °C 2,8 °C -1,1 °C 81 % 999,6 hPa 0,0 l/m² 0,00 h 0,00 h 0 W/m² 11,5 km/h (2 Bft) 97,53 %
21.01.2026 22:00 3,1 °C 2,2 °C -1,5 °C 81 % 999,3 hPa 0,0 l/m² 0,00 h 0,00 h 0 W/m² 11,9 km/h (2 Bft) 96,11 %
21.01.2026 23:00 2,7 °C 1,9 °C -1,7 °C 79 % 999,1 hPa 0,0 l/m² 0,00 h 0,00 h 0 W/m² 12,4 km/h (3 Bft) 97,04 %
22.01.2026 00:00 2,6 °C 1,9 °C -2,0 °C 78 % 998,9 hPa 0,0 l/m² 0,00 h 0,00 h 0 W/m² 11,8 km/h (2 Bft) 95,26 %
22.01.2026 01:00 2,0 °C 1,1 °C -2,5 °C 79 % 998,6 hPa 0,0 l/m² 0,00 h 0,00 h 0 W/m² 10,2 km/h (2 Bft) 97,80 %
22.01.2026 02:00 1,8 °C 1,1 °C -2,6 °C 79 % 998,2 hPa 0,0 l/m² 0,00 h 0,00 h 0 W/m² 12,3 km/h (3 Bft) 97,73 %
22.01.2026 03:00 1,8 °C 0,9 °C -2,7 °C 76 % 998,1 hPa 0,0 l/m² 0,00 h 0,00 h 0 W/m² 11,9 km/h (2 Bft) 96,33 %
22.01.2026 04:00 1,4 °C 0,6 °C -3,1 °C 77 % 997,9 hPa 0,0 l/m² 0,00 h 0,00 h 0 W/m² 11,2 km/h (2 Bft) 97,62 %
22.01.2026 05:00 1,7 °C 1,1 °C -2,8 °C 73 % 997,6 hPa 0,0 l/m² 0,00 h 0,00 h 0 W/m² 15,1 km/h (3 Bft) 94,27 %
22.01.2026 06:00 1,8 °C 1,0 °C -2,8 °C 71 % 997,4 hPa 0,0 l/m² 0,00 h 0,00 h 0 W/m² 15,9 km/h (3 Bft) 97,59 %
22.01.2026 07:00 1,7 °C 0,8 °C -2,8 °C 70 % 997,2 hPa 0,0 l/m² 0,00 h 0,00 h 0 W/m² 16,3 km/h (3 Bft) 97,72 %
22.01.2026 08:00 1,5 °C 0,6 °C -2,8 °C 72 % 997,3 hPa 0,0 l/m² 0,00 h 0,00 h 9 W/m² 15,8 km/h (3 Bft) 98,07 %
22.01.2026 09:00 1,7 °C 1,4 °C -2,6 °C 71 % 997,2 hPa 0,0 l/m² 0,00 h 0,00 h 28 W/m² 16,8 km/h (3 Bft) 95,46 %
22.01.2026 10:00 2,9 °C 2,6 °C -1,8 °C 68 % 997,1 hPa 0,0 l/m² 0,40 h 0,00 h 120 W/m² 19,3 km/h (3 Bft) 98,22 %
22.01.2026 11:00 4,6 °C 9,1 °C -0,8 °C 65 % 997,1 hPa 0,0 l/m² 0,90 h 0,00 h 251 W/m² 16,0 km/h (3 Bft) 97,16 %
22.01.2026 12:00 5,5 °C 10,1 °C 0,3 °C 65 % 996,8 hPa 0,0 l/m² 0,83 h 0,00 h 276 W/m² 13,8 km/h (3 Bft) 96,23 %
22.01.2026 13:00 6,6 °C 11,7 °C 1,0 °C 63 % 996,4 hPa 0,0 l/m² 1,00 h 0,00 h 269 W/m² 14,3 km/h (3 Bft) 97,02 %
22.01.2026 14:00 6,9 °C 7,7 °C 1,2 °C 64 % 996,1 hPa 0,0 l/m² 0,20 h 0,00 h 121 W/m² 10,2 km/h (2 Bft) 98,12 %
22.01.2026 15:00 6,6 °C 6,7 °C 1,1 °C 66 % 996,0 hPa 0,0 l/m² 0,27 h 0,00 h 100 W/m² 7,1 km/h (2 Bft) 96,95 %
22.01.2026 16:00 6,4 °C 5,7 °C 0,9 °C 68 % 996,0 hPa 0,0 l/m² 0,03 h 0,00 h 35 W/m² 5,7 km/h (1 Bft) 97,11 %
22.01.2026 17:00 5,5 °C 4,4 °C 0,4 °C 71 % 996,1 hPa 0,0 l/m² 0,00 h 0,00 h 7 W/m² 10,8 km/h (2 Bft) 97,41 %
22.01.2026 18:00 4,7 °C 3,8 °C -0,3 °C 73 % 996,1 hPa 0,0 l/m² 0,00 h 0,00 h 0 W/m² 11,1 km/h (2 Bft) 97,86 %
22.01.2026 19:00 4,4 °C 3,9 °C -0,0 °C 75 % 996,2 hPa 0,0 l/m² 0,00 h 0,00 h 0 W/m² 16,7 km/h (3 Bft) 96,61 %
22.01.2026 20:00 4,3 °C 3,5 °C -0,9 °C 80 % 996,3 hPa 0,0 l/m² 0,00 h 0,03 h 0 W/m² 16,0 km/h (3 Bft) 96,70 %
22.01.2026 21:00 4,1 °C 3,3 °C -0,6 °C 82 % 996,2 hPa 0,0 l/m² 0,00 h 0,00 h 0 W/m² 16,9 km/h (3 Bft) 98,31 %
22.01.2026 22:00 4,0 °C 3,3 °C -0,6 °C 84 % 996,3 hPa 0,0 l/m² 0,00 h 0,00 h 0 W/m² 18,9 km/h (3 Bft) 97,34 %
22.01.2026 23:00 3,9 °C 3,3 °C -0,6 °C 87 % 996,2 hPa 0,0 l/m² 0,00 h 0,00 h 0 W/m² 16,0 km/h (3 Bft) 96,14 %
23.01.2026 00:00 3,7 °C 3,1 °C -0,6 °C 88 % 996,2 hPa 0,0 l/m² 0,00 h 0,00 h 0 W/m² 16,4 km/h (3 Bft) 99,13 %
23.01.2026 01:00 3,4 °C 2,8 °C -1,1 °C 90 % 996,2 hPa 0,0 l/m² 0,00 h 0,00 h 0 W/m² 16,0 km/h (3 Bft) 94,60 %
23.01.2026 02:00 3,2 °C 2,8 °C -1,1 °C 91 % 996,2 hPa 0,0 l/m² 0,00 h 0,00 h 0 W/m² 17,5 km/h (3 Bft) 98,31 %
23.01.2026 03:00 3,1 °C 2,3 °C -1,5 °C 91 % 996,0 hPa 0,0 l/m² 0,00 h 0,00 h 0 W/m² 14,9 km/h (3 Bft) 97,96 %
23.01.2026 04:00 3,0 °C 2,5 °C -1,3 °C 92 % 995,8 hPa 0,0 l/m² 0,00 h 0,07 h 0 W/m² 17,6 km/h (3 Bft) 97,04 %
23.01.2026 05:00 3,0 °C 2,2 °C -1,6 °C 91 % 995,8 hPa 0,0 l/m² 0,00 h 0,03 h 0 W/m² 14,1 km/h (3 Bft) 96,44 %
23.01.2026 06:00 2,9 °C 2,5 °C -1,2 °C 91 % 995,7 hPa 0,0 l/m² 0,00 h 0,00 h 0 W/m² 16,3 km/h (3 Bft) 95,91 %
23.01.2026 07:00 3,1 °C 2,8 °C -1,1 °C 89 % 995,8 hPa 0,0 l/m² 0,00 h 0,00 h 0 W/m² 13,2 km/h (3 Bft) 98,29 %
23.01.2026 08:00 3,4 °C 2,9 °C -0,8 °C 88 % 995,9 hPa 0,0 l/m² 0,00 h 0,00 h 10 W/m² 17,8 km/h (3 Bft) 95,18 %
23.01.2026 09:00 3,7 °C 3,4 °C -0,6 °C 86 % 996,1 hPa 0,0 l/m² 0,00 h 0,00 h 41 W/m² 18,0 km/h (3 Bft) 98,97 %
23.01.2026 10:00 4,2 °C 4,4 °C 0,2 °C 84 % 996,2 hPa 0,0 l/m² 0,03 h 0,00 h 102 W/m² 19,2 km/h (3 Bft) 94,95 %
23.01.2026 11:00 5,3 °C 6,4 °C 1,2 °C 81 % 996,1 hPa 0,0 l/m² 0,37 h 0,00 h 171 W/m² 20,9 km/h (4 Bft) 96,86 %
23.01.2026 12:00 5,9 °C 6,8 °C 1,6 °C 79 % 995,8 hPa 0,0 l/m² 0,10 h 0,00 h 151 W/m² 16,7 km/h (3 Bft) 96,09 %
23.01.2026 13:00 7,7 °C 11,7 °C 3,1 °C 75 % 995,3 hPa 0,0 l/m² 0,90 h 0,00 h 285 W/m² 16,8 km/h (3 Bft) 97,50 %
23.01.2026 14:00 8,7 °C 9,7 °C 3,3 °C 71 % 995,0 hPa 0,0 l/m² 0,40 h 0,00 h 151 W/m² 17,8 km/h (3 Bft) 97,58 %
23.01.2026 15:00 8,0 °C 7,4 °C 2,9 °C 72 % 995,2 hPa 0,0 l/m² 0,00 h 0,00 h 64 W/m² 13,2 km/h (3 Bft) 96,92 %
23.01.2026 16:00 7,7 °C 7,0 °C 2,8 °C 71 % 995,1 hPa 0,0 l/m² 0,03 h 0,00 h 34 W/m² 17,6 km/h (3 Bft) 97,65 %
23.01.2026 17:00 6,9 °C 5,9 °C 1,8 °C 72 % 995,3 hPa 0,0 l/m² 0,00 h 0,00 h 4 W/m² 17,1 km/h (3 Bft) 95,90 %
23.01.2026 18:00 6,2 °C 5,2 °C 1,3 °C 73 % 995,9 hPa 0,0 l/m² 0,00 h 0,00 h 0 W/m² 13,4 km/h (3 Bft) 97,46 %
23.01.2026 19:00 5,5 °C 4,7 °C 0,9 °C 73 % 996,5 hPa 0,0 l/m² 0,00 h 0,00 h 0 W/m² 12,0 km/h (2 Bft) 96,32 %
23.01.2026 20:00 5,2 °C 4,4 °C 0,6 °C 73 % 996,9 hPa 0,0 l/m² 0,00 h 0,00 h 0 W/m² 14,1 km/h (3 Bft) 97,52 %
23.01.2026 21:00 4,8 °C 4,1 °C 0,3 °C 73 % 997,4 hPa 0,0 l/m² 0,00 h 0,00 h 0 W/m² 18,6 km/h (3 Bft) 98,21 %
23.01.2026 22:00 4,3 °C 3,9 °C 0,0 °C 72 % 997,9 hPa 0,0 l/m² 0,00 h 0,00 h 0 W/m² 20,1 km/h (4 Bft) 95,49 %
23.01.2026 23:00 4,1 °C 3,3 °C -0,2 °C 73 % 998,3 hPa 0,0 l/m² 0,00 h 0,00 h 0 W/m² 19,0 km/h (3 Bft) 99,02 %
24.01.2026 00:00 4,1 °C 3,3 °C -0,1 °C 73 % 998,8 hPa 0,0 l/m² 0,00 h 0,00 h 0 W/m² 18,3 km/h (3 Bft) 97,26 %
24.01.2026 01:00 4,1 °C 3,3 °C -0,2 °C 73 % 999,3 hPa 0,0 l/m² 0,00 h 0,00 h 0 W/m² 19,3 km/h (3 Bft) 97,07 %
24.01.2026 02:00 4,1 °C 3,3 °C -0,4 °C 74 % 999,7 hPa 0,0 l/m² 0,00 h 0,00 h 0 W/m² 17,4 km/h (3 Bft) 96,36 %
24.01.2026 03:00 3,7 °C 2,7 °C -1,7 °C 80 % 1000,2 hPa 0,2 l/m² 0,00 h 0,30 h 0 W/m² 16,2 km/h (3 Bft) 96,22 %
24.01.2026 04:00 2,9 °C 2,2 °C -2,2 °C 87 % 1000,2 hPa 0,2 l/m² 0,00 h 0,10 h 0 W/m² 13,5 km/h (3 Bft) 96,20 %
24.01.2026 05:00 2,8 °C 2,2 °C -2,2 °C 89 % 1000,4 hPa 0,0 l/m² 0,00 h 0,13 h 0 W/m² 14,8 km/h (3 Bft) 97,73 %
24.01.2026 06:00 2,6 °C 1,9 °C -1,7 °C 90 % 1000,6 hPa 0,0 l/m² 0,00 h 0,00 h 0 W/m² 12,9 km/h (3 Bft) 98,59 %
24.01.2026 07:00 2,4 °C 1,8 °C -1,7 °C 91 % 1000,8 hPa 0,0 l/m² 0,00 h 0,00 h 0 W/m² 14,2 km/h (3 Bft) 95,57 %
24.01.2026 08:00 2,6 °C 2,0 °C -1,7 °C 92 % 1001,5 hPa 0,0 l/m² 0,00 h 0,00 h 10 W/m² 10,3 km/h (2 Bft) 98,15 %
24.01.2026 09:00 2,5 °C 2,3 °C -1,6 °C 93 % 1002,0 hPa 0,0 l/m² 0,00 h 0,00 h 47 W/m² 14,8 km/h (3 Bft) 98,49 %
24.01.2026 10:00 3,3 °C 3,9 °C -0,7 °C 93 % 1002,2 hPa 0,0 l/m² 0,40 h 0,00 h 153 W/m² 15,5 km/h (3 Bft) 97,10 %
24.01.2026 11:00 5,9 °C 11,2 °C 0,7 °C 84 % 1002,5 hPa 0,0 l/m² 0,93 h 0,00 h 270 W/m² 16,5 km/h (3 Bft) 98,73 %
24.01.2026 12:00 6,6 °C 11,3 °C 1,4 °C 80 % 1002,5 hPa 0,0 l/m² 0,70 h 0,00 h 264 W/m² 13,4 km/h (3 Bft) 97,85 %
24.01.2026 13:00 8,0 °C 14,4 °C 2,0 °C 76 % 1002,4 hPa 0,0 l/m² 1,00 h 0,00 h 314 W/m² 14,1 km/h (3 Bft) 98,14 %
24.01.2026 14:00 8,4 °C 11,4 °C 2,2 °C 75 % 1002,1 hPa 0,0 l/m² 0,87 h 0,00 h 218 W/m² 11,6 km/h (2 Bft) 99,15 %
24.01.2026 15:00 7,7 °C 7,8 °C 1,8 °C 76 % 1002,4 hPa 0,0 l/m² 0,30 h 0,00 h 91 W/m² 10,3 km/h (2 Bft) 96,38 %
24.01.2026 16:00 6,0 °C 4,9 °C 0,7 °C 80 % 1002,5 hPa 0,0 l/m² 0,00 h 0,00 h 26 W/m² 6,1 km/h (2 Bft) 97,96 %
24.01.2026 17:00 4,6 °C 3,4 °C -0,5 °C 81 % 1002,4 hPa 0,0 l/m² 0,00 h 0,00 h 7 W/m² 6,3 km/h (2 Bft) 96,91 %
24.01.2026 18:00 3,2 °C 1,1 °C -2,4 °C 81 % 1002,5 hPa 0,0 l/m² 0,00 h 0,00 h 0 W/m² 0,6 km/h (0 Bft) 98,38 %
24.01.2026 19:00 2,0 °C 0,5 °C -3,2 °C 85 % 1002,6 hPa 0,0 l/m² 0,00 h 0,00 h 0 W/m² 0,8 km/h (0 Bft) 91,50 %
24.01.2026 20:00 1,6 °C 0,0 °C -3,3 °C 89 % 1002,6 hPa 0,0 l/m² 0,00 h 0,00 h 0 W/m² 1,9 km/h (1 Bft) 97,84 %
24.01.2026 21:00 1,1 °C -0,2 °C -3,6 °C 92 % 1003,0 hPa 0,0 l/m² 0,00 h 0,00 h 0 W/m² 2,3 km/h (1 Bft) 97,61 %
24.01.2026 22:00 1,0 °C 0,8 °C -2,8 °C 91 % 1002,7 hPa 0,0 l/m² 0,00 h 0,00 h 0 W/m² 9,0 km/h (2 Bft) 96,34 %
24.01.2026 23:00 1,4 °C 0,7 °C -2,8 °C 86 % 1002,2 hPa 0,0 l/m² 0,00 h 0,00 h 0 W/m² 11,2 km/h (2 Bft) 97,58 %
25.01.2026 00:00 1,2 °C 0,6 °C -2,9 °C 85 % 1001,9 hPa 0,0 l/m² 0,00 h 0,00 h 0 W/m² 14,3 km/h (3 Bft) 93,64 %
25.01.2026 01:00 0,9 °C 0,2 °C -3,4 °C 84 % 1001,8 hPa 0,0 l/m² 0,00 h 0,00 h 0 W/m² 15,3 km/h (3 Bft) 94,70 %
25.01.2026 02:00 0,3 °C -0,5 °C -4,0 °C 84 % 1001,7 hPa 0,0 l/m² 0,00 h 0,00 h 0 W/m² 13,5 km/h (3 Bft) 97,70 %
25.01.2026 03:00 -0,1 °C -1,1 °C -4,4 °C 84 % 1001,7 hPa 0,0 l/m² 0,00 h 0,00 h 0 W/m² 9,0 km/h (2 Bft) 97,71 %
25.01.2026 04:00 -0,6 °C -1,7 °C -5,0 °C 86 % 1000,9 hPa 0,0 l/m² 0,00 h 0,00 h 0 W/m² 8,2 km/h (2 Bft) 96,89 %
25.01.2026 05:00 -0,9 °C -1,7 °C -5,0 °C 85 % 1000,8 hPa 0,0 l/m² 0,00 h 0,00 h 0 W/m² 13,2 km/h (3 Bft) 97,43 %
25.01.2026 06:00 -1,1 °C -1,7 °C -5,3 °C 85 % 1000,2 hPa 0,0 l/m² 0,00 h 0,00 h 0 W/m² 11,3 km/h (2 Bft) 98,23 %
25.01.2026 07:00 -1,3 °C -2,1 °C -5,5 °C 86 % 999,8 hPa 0,0 l/m² 0,00 h 0,00 h 0 W/m² 9,8 km/h (2 Bft) 95,22 %
25.01.2026 08:00 -1,2 °C -1,7 °C -5,0 °C 85 % 999,7 hPa 0,0 l/m² 0,00 h 0,00 h 8 W/m² 13,3 km/h (3 Bft) 97,72 %
25.01.2026 09:00 -0,9 °C -1,3 °C -4,7 °C 85 % 999,6 hPa 0,0 l/m² 0,00 h 0,00 h 34 W/m² 11,3 km/h (2 Bft) 98,53 %
25.01.2026 10:00 -0,3 °C -0,2 °C -4,0 °C 85 % 999,3 hPa 0,0 l/m² 0,00 h 0,00 h 85 W/m² 11,7 km/h (2 Bft) 97,05 %
25.01.2026 11:00 0,4 °C 0,7 °C -3,2 °C 83 % 999,1 hPa 0,0 l/m² 0,00 h 0,00 h 116 W/m² 12,0 km/h (2 Bft) 95,72 %
25.01.2026 12:00 0,8 °C 0,7 °C -3,0 °C 82 % 998,9 hPa 0,0 l/m² 0,00 h 0,00 h 85 W/m² 11,8 km/h (2 Bft) 97,71 %
25.01.2026 13:00 1,1 °C 1,4 °C -2,5 °C 82 % 998,7 hPa 0,0 l/m² 0,00 h 0,00 h 97 W/m² 7,9 km/h (2 Bft) 95,76 %
25.01.2026 14:00 1,7 °C 2,2 °C -2,2 °C 81 % 998,2 hPa 0,0 l/m² 0,00 h 0,00 h 114 W/m² 7,7 km/h (2 Bft) 98,82 %
25.01.2026 15:00 2,0 °C 2,3 °C -2,2 °C 81 % 998,2 hPa 0,0 l/m² 0,20 h 0,00 h 101 W/m² 7,9 km/h (2 Bft) 97,05 %
25.01.2026 16:00 2,0 °C 1,6 °C -2,4 °C 81 % 998,0 hPa 0,0 l/m² 0,50 h 0,00 h 45 W/m² 5,9 km/h (2 Bft) 96,80 %
25.01.2026 17:00 1,3 °C -0,5 °C -3,9 °C 81 % 997,7 hPa 0,0 l/m² 0,00 h 0,00 h 10 W/m² 0,0 km/h (0 Bft) 95,84 %
25.01.2026 18:00 0,3 °C -1,1 °C -4,4 °C 85 % 997,8 hPa 0,0 l/m² 0,00 h 0,00 h 0 W/m² 0,7 km/h (0 Bft) 97,51 %
25.01.2026 19:00 -0,0 °C -1,5 °C -4,7 °C 88 % 997,8 hPa 0,0 l/m² 0,00 h 0,00 h 0 W/m² 1,5 km/h (1 Bft) 94,08 %
25.01.2026 20:00 -0,8 °C -2,2 °C -5,5 °C 89 % 997,6 hPa 0,0 l/m² 0,00 h 0,00 h 0 W/m² 0,7 km/h (0 Bft) 99,35 %
25.01.2026 21:00 -1,2 °C -2,2 °C -5,1 °C 90 % 997,7 hPa 0,0 l/m² 0,00 h 0,00 h 0 W/m² 0,2 km/h (0 Bft) 96,97 %
25.01.2026 22:00 -1,1 °C -1,8 °C -5,1 °C 92 % 997,8 hPa 0,0 l/m² 0,00 h 0,00 h 0 W/m² 0,4 km/h (0 Bft) 95,88 %
25.01.2026 23:00 -1,4 °C -2,7 °C -5,9 °C 92 % 997,9 hPa 0,0 l/m² 0,00 h 0,00 h 0 W/m² 0,1 km/h (0 Bft) 95,46 %
Min-Datum _ 25.01.26 25.01.26 25.01.26 22.01.26 23.01.26 - - - - 19.01.26 25.01.26
_ Min-Zeit 23:56 23:44 23:26 13:46 13:48 - - - - 03:18 00:02
Minimum _ -1,7 °C -3,3 °C -6,1 °C 62 % 995,0 hPa - - - - 0,0 km/h (0 Bft) 10,00 %
Max-Datum _ 23.01.26 24.01.26 23.01.26 20.01.26 20.01.26 24.01.26 20.01.26 22.01.26 23.01.26 23.01.26 19.01.26
_ Max-Zeit 13:58 13:30 13:56 02:18 00:44 03:36 11:00 20:20 13:30 11:56 00:24
Maximum _ 9,1 °C 15,6 °C 3,9 °C 97 % 1021,2 hPa 0,2 l/m² 0,08 h 0,03 h 394 W/m² 38,6 km/h
SO (5 Bft)
100,00 %
Durchschnitt _ 2,8 °C 2,7 °C -1,6 °C 84 % 1005,2 hPa #0,5 l/m² #21:11 h #40 min. 110 W/m² 12,8 km/h (3 Bft) 96,95 %
© 2026 W. Hausmann